sensor_id;sensor_type;location;lat;lon;timestamp;pressure;altitude;pressure_sealevel;temperature;humidity
54556;BME280;57291;37.520;15.106;2023-06-19T00:01:09;101401.75;;;22.10;56.98
54556;BME280;57291;37.520;15.106;2023-06-19T00:03:36;101403.63;;;22.06;55.91
54556;BME280;57291;37.520;15.106;2023-06-19T00:06:05;101401.56;;;22.03;55.52
54556;BME280;57291;37.520;15.106;2023-06-19T00:08:32;101399.78;;;21.95;55.69
54556;BME280;57291;37.520;15.106;2023-06-19T00:11:00;101392.00;;;21.85;56.15
54556;BME280;57291;37.520;15.106;2023-06-19T00:13:27;101395.03;;;21.80;56.46
54556;BME280;57291;37.520;15.106;2023-06-19T00:15:54;101387.44;;;21.76;56.83
54556;BME280;57291;37.520;15.106;2023-06-19T00:18:22;101394.59;;;21.77;56.79
54556;BME280;57291;37.520;15.106;2023-06-19T00:20:49;101392.97;;;21.76;57.18
54556;BME280;57291;37.520;15.106;2023-06-19T00:23:17;101384.50;;;21.69;57.89
54556;BME280;57291;37.520;15.106;2023-06-19T00:25:44;101384.50;;;21.69;62.18
54556;BME280;57291;37.520;15.106;2023-06-19T00:28:11;101389.75;;;21.74;67.35
54556;BME280;57291;37.520;15.106;2023-06-19T00:30:41;101377.72;;;21.67;70.05
54556;BME280;57291;37.520;15.106;2023-06-19T00:33:08;101382.16;;;21.56;70.00
54556;BME280;57291;37.520;15.106;2023-06-19T00:35:36;101377.59;;;21.47;70.03
54556;BME280;57291;37.520;15.106;2023-06-19T00:38:05;101390.41;;;21.40;70.61
54556;BME280;57291;37.520;15.106;2023-06-19T00:40:33;101375.91;;;21.30;71.28
54556;BME280;57291;37.520;15.106;2023-06-19T00:43:01;101373.38;;;21.38;72.83
54556;BME280;57291;37.520;15.106;2023-06-19T00:45:28;101370.59;;;21.38;74.64
54556;BME280;57291;37.520;15.106;2023-06-19T00:47:57;101367.16;;;21.28;73.93
54556;BME280;57291;37.520;15.106;2023-06-19T00:50:25;101360.53;;;21.17;73.87
54556;BME280;57291;37.520;15.106;2023-06-19T00:52:53;101362.31;;;21.10;74.21
54556;BME280;57291;37.520;15.106;2023-06-19T00:55:21;101365.66;;;21.03;73.60
54556;BME280;57291;37.520;15.106;2023-06-19T00:57:49;101360.84;;;21.00;72.58
54556;BME280;57291;37.520;15.106;2023-06-19T01:00:17;101363.13;;;20.98;70.21
54556;BME280;57291;37.520;15.106;2023-06-19T01:02:46;101370.25;;;20.99;62.87
54556;BME280;57291;37.520;15.106;2023-06-19T01:05:14;101359.88;;;21.08;58.28
54556;BME280;57291;37.520;15.106;2023-06-19T01:08:12;101362.84;;;21.15;57.27
54556;BME280;57291;37.520;15.106;2023-06-19T01:10:54;101368.38;;;21.15;57.11
54556;BME280;57291;37.520;15.106;2023-06-19T01:13:31;101355.72;;;21.14;56.84
54556;BME280;57291;37.520;15.106;2023-06-19T01:16:03;101360.44;;;21.14;55.78
54556;BME280;57291;37.520;15.106;2023-06-19T01:18:31;101363.63;;;21.16;55.03
54556;BME280;57291;37.520;15.106;2023-06-19T01:21:14;101362.13;;;21.18;54.83
54556;BME280;57291;37.520;15.106;2023-06-19T01:23:42;101366.06;;;21.17;54.61
54556;BME280;57291;37.520;15.106;2023-06-19T01:26:11;101375.53;;;21.16;54.19
54556;BME280;57291;37.520;15.106;2023-06-19T01:28:42;101374.81;;;21.19;53.68
54556;BME280;57291;37.520;15.106;2023-06-19T01:31:42;101371.59;;;21.17;53.76
54556;BME280;57291;37.520;15.106;2023-06-19T01:34:14;101366.06;;;21.17;53.47
54556;BME280;57291;37.520;15.106;2023-06-19T01:36:45;101371.59;;;21.17;53.47
54556;BME280;57291;37.520;15.106;2023-06-19T01:39:15;101372.75;;;21.16;52.98
54556;BME280;57291;37.520;15.106;2023-06-19T01:41:44;101372.28;;;21.14;53.04
54556;BME280;57291;37.520;15.106;2023-06-19T01:44:13;101371.50;;;21.14;52.74
54556;BME280;57291;37.520;15.106;2023-06-19T01:46:40;101371.13;;;21.15;52.31
54556;BME280;57291;37.520;15.106;2023-06-19T01:49:08;101380.22;;;21.16;51.87
54556;BME280;57291;37.520;15.106;2023-06-19T01:51:36;101377.44;;;21.16;51.72
54556;BME280;57291;37.520;15.106;2023-06-19T01:54:03;101375.06;;;21.14;51.54
54556;BME280;57291;37.520;15.106;2023-06-19T01:56:31;101368.25;;;21.12;51.44
54556;BME280;57291;37.520;15.106;2023-06-19T01:58:59;101373.34;;;21.10;51.88
54556;BME280;57291;37.520;15.106;2023-06-19T02:01:27;101363.44;;;21.08;51.80
54556;BME280;57291;37.520;15.106;2023-06-19T02:03:54;101362.44;;;21.01;54.03
54556;BME280;57291;37.520;15.106;2023-06-19T02:06:21;101361.63;;;21.00;53.91
54556;BME280;57291;37.520;15.106;2023-06-19T02:08:49;101362.34;;;20.97;54.26
54556;BME280;57291;37.520;15.106;2023-06-19T02:11:16;101356.72;;;20.94;54.30
54556;BME280;57291;37.520;15.106;2023-06-19T02:13:43;101351.19;;;20.94;53.96
54556;BME280;57291;37.520;15.106;2023-06-19T02:16:12;101342.91;;;20.94;53.69
54556;BME280;57291;37.520;15.106;2023-06-19T02:18:39;101338.53;;;20.93;53.57
54556;BME280;57291;37.520;15.106;2023-06-19T02:21:06;101331.38;;;20.92;53.69
54556;BME280;57291;37.520;15.106;2023-06-19T02:23:34;101346.00;;;20.92;53.93
54556;BME280;57291;37.520;15.106;2023-06-19T02:26:01;101345.19;;;20.92;53.84
54556;BME280;57291;37.520;15.106;2023-06-19T02:28:28;101337.28;;;20.90;53.67
54556;BME280;57291;37.520;15.106;2023-06-19T02:30:55;101343.94;;;20.89;53.12
54556;BME280;57291;37.520;15.106;2023-06-19T02:33:22;101345.91;;;20.89;53.21
54556;BME280;57291;37.520;15.106;2023-06-19T02:35:52;101346.25;;;20.87;53.59
54556;BME280;57291;37.520;15.106;2023-06-19T02:38:19;101343.03;;;20.85;53.83
54556;BME280;57291;37.520;15.106;2023-06-19T02:40:48;101344.19;;;20.84;54.01
54556;BME280;57291;37.520;15.106;2023-06-19T02:43:15;101346.16;;;20.83;53.92
54556;BME280;57291;37.520;15.106;2023-06-19T02:45:42;101339.00;;;20.82;53.86
54556;BME280;57291;37.520;15.106;2023-06-19T02:48:09;101340.63;;;20.83;53.95
54556;BME280;57291;37.520;15.106;2023-06-19T02:50:37;101341.75;;;20.82;53.87
54556;BME280;57291;37.520;15.106;2023-06-19T02:53:05;101342.94;;;20.81;53.66
54556;BME280;57291;37.520;15.106;2023-06-19T02:55:32;101353.19;;;20.81;53.82
54556;BME280;57291;37.520;15.106;2023-06-19T02:57:59;101357.81;;;20.77;53.84
54556;BME280;57291;37.520;15.106;2023-06-19T03:00:26;101351.81;;;20.75;54.18
54556;BME280;57291;37.520;15.106;2023-06-19T03:02:56;101352.16;;;20.73;54.95
54556;BME280;57291;37.520;15.106;2023-06-19T03:05:24;101354.47;;;20.71;55.98
54556;BME280;57291;37.520;15.106;2023-06-19T03:07:55;101352.88;;;20.70;57.14
54556;BME280;57291;37.520;15.106;2023-06-19T03:10:22;101353.47;;;20.64;58.01
54556;BME280;57291;37.520;15.106;2023-06-19T03:12:49;101350.03;;;20.54;59.52
54556;BME280;57291;37.520;15.106;2023-06-19T03:15:17;101355.06;;;20.52;59.18
54556;BME280;57291;37.520;15.106;2023-06-19T03:17:47;101356.22;;;20.51;58.12
54556;BME280;57291;37.520;15.106;2023-06-19T03:20:16;101363.03;;;20.54;57.84
54556;BME280;57291;37.520;15.106;2023-06-19T03:22:50;101366.44;;;20.63;57.30
54556;BME280;57291;37.520;15.106;2023-06-19T03:25:19;101375.19;;;20.65;56.54
54556;BME280;57291;37.520;15.106;2023-06-19T03:27:47;101376.47;;;20.68;55.93
54556;BME280;57291;37.520;15.106;2023-06-19T03:30:15;101374.97;;;20.70;55.97
54556;BME280;57291;37.520;15.106;2023-06-19T03:32:49;101376.66;;;20.75;55.04
54556;BME280;57291;37.520;15.106;2023-06-19T03:35:34;101374.47;;;20.80;54.83
54556;BME280;57291;37.520;15.106;2023-06-19T03:38:03;101374.47;;;20.80;54.59
54556;BME280;57291;37.520;15.106;2023-06-19T03:40:30;101371.72;;;20.80;54.92
54556;BME280;57291;37.520;15.106;2023-06-19T03:43:04;101383.09;;;20.79;54.94
54556;BME280;57291;37.520;15.106;2023-06-19T03:45:32;101379.09;;;20.76;55.42
54556;BME280;57291;37.520;15.106;2023-06-19T03:47:59;101388.97;;;20.77;55.54
54556;BME280;57291;37.520;15.106;2023-06-19T03:50:26;101385.41;;;20.77;54.83
54556;BME280;57291;37.520;15.106;2023-06-19T03:52:53;101382.56;;;20.73;54.58
54556;BME280;57291;37.520;15.106;2023-06-19T03:55:20;101388.88;;;20.74;54.13
54556;BME280;57291;37.520;15.106;2023-06-19T03:57:48;101387.03;;;20.78;53.79
54556;BME280;57291;37.520;15.106;2023-06-19T04:00:16;101391.06;;;20.80;54.22
54556;BME280;57291;37.520;15.106;2023-06-19T04:02:48;101381.72;;;20.85;53.91
54556;BME280;57291;37.520;15.106;2023-06-19T04:05:16;101387.00;;;20.90;53.61
54556;BME280;57291;37.520;15.106;2023-06-19T04:07:43;101374.09;;;20.94;52.93
54556;BME280;57291;37.520;15.106;2023-06-19T04:10:13;101376.94;;;20.98;52.41
54556;BME280;57291;37.520;15.106;2023-06-19T04:12:40;101386.94;;;21.02;52.40
54556;BME280;57291;37.520;15.106;2023-06-19T04:15:08;101389.47;;;21.07;52.32
54556;BME280;57291;37.520;15.106;2023-06-19T04:17:36;101386.81;;;21.11;52.12
54556;BME280;57291;37.520;15.106;2023-06-19T04:20:04;101390.47;;;21.15;51.74
54556;BME280;57291;37.520;15.106;2023-06-19T04:22:39;101396.47;;;21.17;52.04
54556;BME280;57291;37.520;15.106;2023-06-19T04:25:08;101404.84;;;21.21;52.00
54556;BME280;57291;37.520;15.106;2023-06-19T04:27:36;101396.66;;;21.24;51.99
54556;BME280;57291;37.520;15.106;2023-06-19T04:30:04;101390.81;;;21.26;51.71
54556;BME280;57291;37.520;15.106;2023-06-19T04:32:34;101391.34;;;21.31;51.51
54556;BME280;57291;37.520;15.106;2023-06-19T04:35:02;101399.84;;;21.39;51.66
54556;BME280;57291;37.520;15.106;2023-06-19T04:37:29;101387.38;;;21.45;51.47
54556;BME280;57291;37.520;15.106;2023-06-19T04:39:56;101393.94;;;21.52;51.21
54556;BME280;57291;37.520;15.106;2023-06-19T04:42:24;101392.53;;;21.59;50.96
54556;BME280;57291;37.520;15.106;2023-06-19T04:44:52;101391.63;;;21.70;50.70
54556;BME280;57291;37.520;15.106;2023-06-19T04:47:21;101395.84;;;21.80;56.78
54556;BME280;57291;37.520;15.106;2023-06-19T04:49:48;101398.97;;;21.78;57.75
54556;BME280;57291;37.520;15.106;2023-06-19T04:52:16;101403.59;;;21.74;55.02
54556;BME280;57291;37.520;15.106;2023-06-19T04:54:43;101404.59;;;21.82;57.20
54556;BME280;57291;37.520;15.106;2023-06-19T04:57:10;101408.16;;;21.83;60.46
54556;BME280;57291;37.520;15.106;2023-06-19T04:59:37;101410.94;;;21.83;63.88
54556;BME280;57291;37.520;15.106;2023-06-19T05:02:04;101415.22;;;21.80;65.54
54556;BME280;57291;37.520;15.106;2023-06-19T05:04:33;101406.34;;;21.74;64.59
54556;BME280;57291;37.520;15.106;2023-06-19T05:07:00;101408.69;;;21.72;64.77
54556;BME280;57291;37.520;15.106;2023-06-19T05:09:28;101403.78;;;21.66;64.22
54556;BME280;57291;37.520;15.106;2023-06-19T05:11:57;101401.00;;;21.66;63.50
54556;BME280;57291;37.520;15.106;2023-06-19T05:14:24;101407.47;;;21.86;65.07
54556;BME280;57291;37.520;15.106;2023-06-19T05:16:51;101407.81;;;22.00;65.80
54556;BME280;57291;37.520;15.106;2023-06-19T05:19:18;101413.81;;;22.02;63.80
54556;BME280;57291;37.520;15.106;2023-06-19T05:21:45;101418.63;;;22.05;62.60
54556;BME280;57291;37.520;15.106;2023-06-19T05:24:12;101428.44;;;22.02;61.13
54556;BME280;57291;37.520;15.106;2023-06-19T05:26:40;101424.69;;;22.11;61.00
54556;BME280;57291;37.520;15.106;2023-06-19T05:29:07;101431.84;;;22.12;60.18
54556;BME280;57291;37.520;15.106;2023-06-19T05:31:35;101431.97;;;22.15;62.96
54556;BME280;57291;37.520;15.106;2023-06-19T05:34:02;101431.44;;;22.26;62.73
54556;BME280;57291;37.520;15.106;2023-06-19T05:36:30;101437.31;;;22.40;62.45
54556;BME280;57291;37.520;15.106;2023-06-19T05:38:57;101436.69;;;22.46;63.92
54556;BME280;57291;37.520;15.106;2023-06-19T05:41:24;101430.34;;;22.46;62.98
54556;BME280;57291;37.520;15.106;2023-06-19T05:43:51;101428.63;;;22.57;64.84
54556;BME280;57291;37.520;15.106;2023-06-19T05:46:18;101432.78;;;22.67;64.45
54556;BME280;57291;37.520;15.106;2023-06-19T05:48:46;101430.38;;;22.81;64.16
54556;BME280;57291;37.520;15.106;2023-06-19T05:51:14;101430.50;;;23.04;62.76
54556;BME280;57291;37.520;15.106;2023-06-19T05:53:41;101428.78;;;23.97;60.92
54556;BME280;57291;37.520;15.106;2023-06-19T05:56:08;101439.91;;;24.99;57.43
54556;BME280;57291;37.520;15.106;2023-06-19T05:58:35;101439.53;;;26.47;54.11
54556;BME280;57291;37.520;15.106;2023-06-19T06:01:03;101442.50;;;27.52;50.40
54556;BME280;57291;37.520;15.106;2023-06-19T06:03:30;101444.25;;;28.10;48.09
54556;BME280;57291;37.520;15.106;2023-06-19T06:05:57;101442.56;;;28.88;45.04
54556;BME280;57291;37.520;15.106;2023-06-19T06:08:30;101440.00;;;29.40;43.57
54556;BME280;57291;37.520;15.106;2023-06-19T06:10:57;101454.72;;;29.58;42.81
54556;BME280;57291;37.520;15.106;2023-06-19T06:13:24;101461.78;;;29.81;42.32
54556;BME280;57291;37.520;15.106;2023-06-19T06:15:52;101469.63;;;30.04;41.25
54556;BME280;57291;37.520;15.106;2023-06-19T06:18:19;101462.31;;;30.24;39.63
54556;BME280;57291;37.520;15.106;2023-06-19T06:20:46;101467.03;;;30.34;39.66
54556;BME280;57291;37.520;15.106;2023-06-19T06:23:13;101473.81;;;30.37;38.84
54556;BME280;57291;37.520;15.106;2023-06-19T06:25:41;101473.47;;;30.31;39.05
54556;BME280;57291;37.520;15.106;2023-06-19T06:28:08;101479.22;;;30.06;38.79
54556;BME280;57291;37.520;15.106;2023-06-19T06:30:35;101477.63;;;30.09;36.98
54556;BME280;57291;37.520;15.106;2023-06-19T06:33:02;101473.25;;;30.04;36.68
54556;BME280;57291;37.520;15.106;2023-06-19T06:35:30;101480.00;;;30.10;35.18
54556;BME280;57291;37.520;15.106;2023-06-19T06:37:57;101484.41;;;30.11;34.81
54556;BME280;57291;37.520;15.106;2023-06-19T06:40:25;101487.78;;;30.44;33.17
54556;BME280;57291;37.520;15.106;2023-06-19T06:42:52;101479.13;;;30.21;33.84
54556;BME280;57291;37.520;15.106;2023-06-19T06:45:21;101484.72;;;30.28;34.42
54556;BME280;57291;37.520;15.106;2023-06-19T06:47:51;101483.97;;;30.13;33.14
54556;BME280;57291;37.520;15.106;2023-06-19T06:50:18;101487.28;;;29.97;34.18
54556;BME280;57291;37.520;15.106;2023-06-19T06:52:45;101488.13;;;29.90;33.63
54556;BME280;57291;37.520;15.106;2023-06-19T06:55:12;101483.16;;;30.16;31.88
54556;BME280;57291;37.520;15.106;2023-06-19T06:57:39;101486.75;;;30.20;32.74
54556;BME280;57291;37.520;15.106;2023-06-19T07:00:07;101477.91;;;30.25;31.83
54556;BME280;57291;37.520;15.106;2023-06-19T07:02:38;101484.56;;;29.86;33.08
54556;BME280;57291;37.520;15.106;2023-06-19T07:05:08;101475.25;;;30.00;32.81
54556;BME280;57291;37.520;15.106;2023-06-19T07:07:36;101477.31;;;29.92;31.99
54556;BME280;57291;37.520;15.106;2023-06-19T07:10:03;101482.75;;;29.48;33.97
54556;BME280;57291;37.520;15.106;2023-06-19T07:12:30;101480.47;;;29.21;36.96
54556;BME280;57291;37.520;15.106;2023-06-19T07:14:58;101486.03;;;29.35;37.33
54556;BME280;57291;37.520;15.106;2023-06-19T07:17:25;101477.56;;;29.50;34.97
54556;BME280;57291;37.520;15.106;2023-06-19T07:19:52;101475.53;;;29.54;32.90
54556;BME280;57291;37.520;15.106;2023-06-19T07:22:19;101471.16;;;29.49;32.30
54556;BME280;57291;37.520;15.106;2023-06-19T07:24:46;101472.38;;;29.41;31.84
54556;BME280;57291;37.520;15.106;2023-06-19T07:27:13;101478.41;;;29.36;31.31
54556;BME280;57291;37.520;15.106;2023-06-19T07:29:41;101478.44;;;29.29;32.02
54556;BME280;57291;37.520;15.106;2023-06-19T07:32:08;101478.06;;;29.23;32.53
54556;BME280;57291;37.520;15.106;2023-06-19T07:34:35;101484.06;;;29.21;32.52
54556;BME280;57291;37.520;15.106;2023-06-19T07:37:02;101484.88;;;29.26;32.73
54556;BME280;57291;37.520;15.106;2023-06-19T07:39:30;101488.09;;;29.13;34.08
54556;BME280;57291;37.520;15.106;2023-06-19T07:41:57;101487.28;;;28.98;34.41
54556;BME280;57291;37.520;15.106;2023-06-19T07:44:25;101482.53;;;28.85;34.54
54556;BME280;57291;37.520;15.106;2023-06-19T07:46:52;101495.38;;;28.50;35.18
54556;BME280;57291;37.520;15.106;2023-06-19T07:49:19;101477.38;;;28.22;36.79
54556;BME280;57291;37.520;15.106;2023-06-19T07:51:46;101490.53;;;28.11;37.12
54556;BME280;57291;37.520;15.106;2023-06-19T07:54:13;101490.94;;;28.17;36.22
54556;BME280;57291;37.520;15.106;2023-06-19T07:56:40;101491.72;;;27.99;35.95
54556;BME280;57291;37.520;15.106;2023-06-19T07:59:08;101490.50;;;27.97;36.46
54556;BME280;57291;37.520;15.106;2023-06-19T08:01:35;101484.91;;;27.97;36.24
54556;BME280;57291;37.520;15.106;2023-06-19T08:04:02;101498.47;;;27.88;37.60
54556;BME280;57291;37.520;15.106;2023-06-19T08:06:29;101489.28;;;27.83;37.38
54556;BME280;57291;37.520;15.106;2023-06-19T08:08:56;101493.69;;;27.95;37.92
54556;BME280;57291;37.520;15.106;2023-06-19T08:11:23;101493.34;;;28.11;36.97
54556;BME280;57291;37.520;15.106;2023-06-19T08:13:51;101492.13;;;28.09;37.36
54556;BME280;57291;37.520;15.106;2023-06-19T08:16:18;101494.13;;;28.15;37.48
54556;BME280;57291;37.520;15.106;2023-06-19T08:18:45;101493.75;;;28.20;37.64
54556;BME280;57291;37.520;15.106;2023-06-19T08:21:13;101499.72;;;28.29;38.26
54556;BME280;57291;37.520;15.106;2023-06-19T08:23:40;101500.97;;;28.50;37.14
54556;BME280;57291;37.520;15.106;2023-06-19T08:26:10;101482.94;;;28.33;37.06
54556;BME280;57291;37.520;15.106;2023-06-19T08:28:38;101500.16;;;28.57;39.44
54556;BME280;57291;37.520;15.106;2023-06-19T08:31:05;101496.53;;;28.56;39.21
54556;BME280;57291;37.520;15.106;2023-06-19T08:33:34;101501.78;;;28.47;39.56
54556;BME280;57291;37.520;15.106;2023-06-19T08:36:02;101488.16;;;28.56;41.41
54556;BME280;57291;37.520;15.106;2023-06-19T08:38:29;101494.97;;;28.48;41.05
54556;BME280;57291;37.520;15.106;2023-06-19T08:40:56;101497.38;;;28.53;40.74
54556;BME280;57291;37.520;15.106;2023-06-19T08:43:23;101492.59;;;28.50;40.76
54556;BME280;57291;37.520;15.106;2023-06-19T08:46:09;101490.59;;;28.50;39.15
54556;BME280;57291;37.520;15.106;2023-06-19T08:48:38;101486.59;;;28.48;39.04
54556;BME280;57291;37.520;15.106;2023-06-19T08:51:05;101496.56;;;28.45;38.11
54556;BME280;57291;37.520;15.106;2023-06-19T08:53:34;101509.31;;;28.28;38.29
54556;BME280;57291;37.520;15.106;2023-06-19T08:56:04;101504.56;;;28.43;41.43
54556;BME280;57291;37.520;15.106;2023-06-19T08:58:31;101510.50;;;28.31;41.22
54556;BME280;57291;37.520;15.106;2023-06-19T09:00:58;101502.50;;;28.26;39.21
54556;BME280;57291;37.520;15.106;2023-06-19T09:03:26;101499.72;;;28.12;35.11
54556;BME280;57291;37.520;15.106;2023-06-19T09:05:53;101510.09;;;28.04;36.60
54556;BME280;57291;37.520;15.106;2023-06-19T09:08:22;101504.50;;;28.00;40.94
54556;BME280;57291;37.520;15.106;2023-06-19T09:10:59;101504.50;;;28.08;40.20
54556;BME280;57291;37.520;15.106;2023-06-19T09:13:28;101507.69;;;28.06;35.85
54556;BME280;57291;37.520;15.106;2023-06-19T09:16:07;101510.09;;;28.04;36.60
54556;BME280;57291;37.520;15.106;2023-06-19T09:18:46;101512.84;;;27.97;35.65
54556;BME280;57291;37.520;15.106;2023-06-19T09:21:20;101516.72;;;27.67;41.00
54556;BME280;57291;37.520;15.106;2023-06-19T09:23:51;101511.88;;;27.46;44.27
54556;BME280;57291;37.520;15.106;2023-06-19T09:26:26;101502.50;;;27.10;44.41
54556;BME280;57291;37.520;15.106;2023-06-19T09:28:53;101503.97;;;26.89;44.50
54556;BME280;57291;37.520;15.106;2023-06-19T09:31:31;101504.28;;;26.77;46.69
54556;BME280;57291;37.520;15.106;2023-06-19T09:33:59;101499.84;;;26.69;47.46
54556;BME280;57291;37.520;15.106;2023-06-19T09:36:27;101499.72;;;26.55;46.91
54556;BME280;57291;37.520;15.106;2023-06-19T09:38:56;101497.69;;;26.52;41.87
54556;BME280;57291;37.520;15.106;2023-06-19T09:41:24;101498.19;;;26.61;44.90
54556;BME280;57291;37.520;15.106;2023-06-19T09:43:55;101491.00;;;26.60;44.31
54556;BME280;57291;37.520;15.106;2023-06-19T09:46:30;101495.50;;;26.75;38.51
54556;BME280;57291;37.520;15.106;2023-06-19T09:49:01;101499.91;;;26.80;37.21
54556;BME280;57291;37.520;15.106;2023-06-19T09:51:34;101492.78;;;26.82;39.45
54556;BME280;57291;37.520;15.106;2023-06-19T09:54:05;101498.44;;;26.97;42.53
54556;BME280;57291;37.520;15.106;2023-06-19T09:56:34;101495.31;;;27.05;41.25
54556;BME280;57291;37.520;15.106;2023-06-19T09:59:01;101498.53;;;27.15;43.99
54556;BME280;57291;37.520;15.106;2023-06-19T10:01:31;101501.78;;;27.20;41.22
54556;BME280;57291;37.520;15.106;2023-06-19T10:04:04;101497.06;;;27.31;40.40
54556;BME280;57291;37.520;15.106;2023-06-19T10:06:31;101495.44;;;27.27;37.56
54556;BME280;57291;37.520;15.106;2023-06-19T10:09:09;101478.69;;;27.27;37.40
54556;BME280;57291;37.520;15.106;2023-06-19T10:11:51;101486.25;;;27.23;40.86
54556;BME280;57291;37.520;15.106;2023-06-19T10:14:22;101482.53;;;27.08;39.18
54556;BME280;57291;37.520;15.106;2023-06-19T10:16:51;101469.25;;;26.83;40.95
54556;BME280;57291;37.520;15.106;2023-06-19T10:19:21;101466.81;;;26.78;47.56
54556;BME280;57291;37.520;15.106;2023-06-19T10:21:54;101468.75;;;26.67;46.05
54556;BME280;57291;37.520;15.106;2023-06-19T10:24:23;101461.19;;;26.67;44.89
54556;BME280;57291;37.520;15.106;2023-06-19T10:27:02;101456.00;;;26.66;48.82
54556;BME280;57291;37.520;15.106;2023-06-19T10:29:39;101451.19;;;26.59;49.35
54556;BME280;57291;37.520;15.106;2023-06-19T10:32:10;101449.69;;;26.73;46.12
54556;BME280;57291;37.520;15.106;2023-06-19T10:34:37;101446.50;;;26.78;51.12
54556;BME280;57291;37.520;15.106;2023-06-19T10:37:05;101442.44;;;26.64;49.93
54556;BME280;57291;37.520;15.106;2023-06-19T10:39:32;101443.97;;;26.55;51.56
54556;BME280;57291;37.520;15.106;2023-06-19T10:41:59;101445.69;;;26.70;51.69
54556;BME280;57291;37.520;15.106;2023-06-19T10:44:26;101437.75;;;26.76;50.45
54556;BME280;57291;37.520;15.106;2023-06-19T10:46:53;101446.13;;;26.79;52.97
54556;BME280;57291;37.520;15.106;2023-06-19T10:49:21;101450.97;;;26.89;52.56
54556;BME280;57291;37.520;15.106;2023-06-19T10:51:48;101451.03;;;27.00;51.83
54556;BME280;57291;37.520;15.106;2023-06-19T10:54:17;101450.28;;;27.10;50.07
54556;BME280;57291;37.520;15.106;2023-06-19T10:56:44;101450.31;;;27.14;51.25
54556;BME280;57291;37.520;15.106;2023-06-19T10:59:11;101438.72;;;27.08;52.72
54556;BME280;57291;37.520;15.106;2023-06-19T11:01:44;101450.75;;;27.16;52.38
54556;BME280;57291;37.520;15.106;2023-06-19T11:04:14;101450.00;;;27.26;52.78
54556;BME280;57291;37.520;15.106;2023-06-19T11:06:45;101446.84;;;27.39;53.35
54556;BME280;57291;37.520;15.106;2023-06-19T11:09:14;101441.63;;;27.33;52.38
54556;BME280;57291;37.520;15.106;2023-06-19T11:11:46;101446.78;;;27.24;52.11
54556;BME280;57291;37.520;15.106;2023-06-19T11:14:15;101440.78;;;27.19;49.37
54556;BME280;57291;37.520;15.106;2023-06-19T11:16:45;101431.63;;;27.18;52.76
54556;BME280;57291;37.520;15.106;2023-06-19T11:19:18;101438.00;;;27.15;54.13
54556;BME280;57291;37.520;15.106;2023-06-19T11:21:48;101437.06;;;26.97;55.89
54556;BME280;57291;37.520;15.106;2023-06-19T11:24:16;101424.69;;;26.90;56.49
54556;BME280;57291;37.520;15.106;2023-06-19T11:26:45;101423.44;;;26.84;58.41
54556;BME280;57291;37.520;15.106;2023-06-19T11:29:19;101429.03;;;26.84;59.25
54556;BME280;57291;37.520;15.106;2023-06-19T11:31:48;101421.97;;;27.05;58.65
54556;BME280;57291;37.520;15.106;2023-06-19T11:34:16;101422.78;;;27.09;59.50
54556;BME280;57291;37.520;15.106;2023-06-19T11:36:46;101420.84;;;27.13;60.24
54556;BME280;57291;37.520;15.106;2023-06-19T11:39:15;101421.25;;;27.19;59.83
54556;BME280;57291;37.520;15.106;2023-06-19T11:41:45;101418.06;;;27.17;59.20
54556;BME280;57291;37.520;15.106;2023-06-19T11:44:13;101414.41;;;27.09;59.93
54556;BME280;57291;37.520;15.106;2023-06-19T11:46:42;101420.38;;;27.11;59.73
54556;BME280;57291;37.520;15.106;2023-06-19T11:49:13;101419.22;;;27.12;59.65
54556;BME280;57291;37.520;15.106;2023-06-19T11:51:41;101416.31;;;26.94;59.47
54556;BME280;57291;37.520;15.106;2023-06-19T11:54:10;101422.69;;;26.95;59.87
54556;BME280;57291;37.520;15.106;2023-06-19T11:56:38;101421.25;;;27.15;59.79
54556;BME280;57291;37.520;15.106;2023-06-19T11:59:07;101421.31;;;27.33;60.28
54556;BME280;57291;37.520;15.106;2023-06-19T12:01:35;101421.63;;;27.17;60.57
54556;BME280;57291;37.520;15.106;2023-06-19T12:04:03;101410.75;;;26.98;62.69
54556;BME280;57291;37.520;15.106;2023-06-19T12:06:31;101415.97;;;26.99;61.70
54556;BME280;57291;37.520;15.106;2023-06-19T12:08:58;101418.88;;;27.24;62.90
54556;BME280;57291;37.520;15.106;2023-06-19T12:11:25;101414.84;;;27.15;63.01
54556;BME280;57291;37.520;15.106;2023-06-19T12:13:53;101407.69;;;27.13;62.72
54556;BME280;57291;37.520;15.106;2023-06-19T12:16:24;101411.63;;;27.05;62.57
54556;BME280;57291;37.520;15.106;2023-06-19T12:18:53;101405.31;;;27.19;62.92
54556;BME280;57291;37.520;15.106;2023-06-19T12:21:20;101406.16;;;27.30;62.08
54556;BME280;57291;37.520;15.106;2023-06-19T12:24:01;101404.53;;;27.26;62.20
54556;BME280;57291;37.520;15.106;2023-06-19T12:26:29;101399.75;;;27.30;61.85
54556;BME280;57291;37.520;15.106;2023-06-19T12:28:56;101400.19;;;27.28;62.39
54556;BME280;57291;37.520;15.106;2023-06-19T12:31:23;101397.84;;;27.45;62.85
54556;BME280;57291;37.520;15.106;2023-06-19T12:33:51;101396.97;;;27.30;62.25
54556;BME280;57291;37.520;15.106;2023-06-19T12:36:19;101396.00;;;26.94;64.66
54556;BME280;57291;37.520;15.106;2023-06-19T12:38:46;101393.84;;;26.62;66.58
54556;BME280;57291;37.520;15.106;2023-06-19T12:41:15;101389.97;;;26.81;65.68
54556;BME280;57291;37.520;15.106;2023-06-19T12:43:44;101403.91;;;26.77;65.42
54556;BME280;57291;37.520;15.106;2023-06-19T12:46:11;101395.50;;;26.70;66.42
54556;BME280;57291;37.520;15.106;2023-06-19T12:48:38;101402.66;;;26.67;65.93